Time;durP1;ratioP1;P1;durP2;ratioP2;P2;SDS_P1;SDS_P2;PMS_P1;PMS_P2;Temp;Humidity;BMP_temperature;BMP_pressure;BME280_temperature;BME280_humidity;BME280_pressure;Samples;Min_cycle;Max_cycle;Signal;HPM_P1;HPM_P2
2022/10/12 00:00:28;;;;;;;13.10;4.87;;;12.50;72.10;;;15.06;54.71;102531.44;5043891;28;20202;-60
2022/10/12 00:02:55;;;;;;;7.30;4.60;;;12.50;72.20;;;15.03;54.99;102531.75;5040094;28;20423;-61
2022/10/12 00:05:22;;;;;;;9.43;3.83;;;12.40;72.10;;;15.03;54.98;102543.19;5048899;28;20214;-61
2022/10/12 00:07:49;;;;;;;8.63;4.27;;;12.40;72.10;;;15.04;54.65;102534.28;5053769;28;20197;-61
2022/10/12 00:10:18;;;;;;;8.50;4.17;;;12.40;72.20;;;15.08;54.62;102540.06;5053846;28;20549;-61
2022/10/12 00:12:45;;;;;;;6.57;3.90;;;12.40;72.40;;;15.10;54.71;102533.63;5042815;28;20674;-61
2022/10/12 00:15:13;;;;;;;7.73;3.97;;;12.40;72.30;;;15.14;54.32;102539.44;5046784;28;20252;-61
2022/10/12 00:17:40;;;;;;;10.70;4.70;;;12.40;72.30;;;15.16;54.62;102530.34;5033650;28;20256;-61
2022/10/12 00:20:09;;;;;;;9.53;4.27;;;12.40;72.40;;;15.20;54.33;102530.84;5037106;28;20216;-60
2022/10/12 00:22:36;;;;;;;10.63;4.33;;;12.40;72.60;;;15.20;54.34;102533.50;5047222;28;20272;-61
2022/10/12 00:25:05;;;;;;;9.67;3.90;;;12.40;72.40;;;15.17;54.52;102539.94;5044879;28;20245;-61
2022/10/12 00:27:33;;;;;;;11.77;4.27;;;12.40;72.30;;;15.19;54.25;102545.13;5033369;28;20190;-61
2022/10/12 00:30:01;;;;;;;9.93;4.93;;;12.40;72.40;;;15.12;54.56;102536.94;5033067;28;20616;-61
2022/10/12 00:32:28;;;;;;;7.73;4.40;;;12.40;72.20;;;15.02;54.75;102540.72;5039892;28;20238;-62
2022/10/12 00:34:55;;;;;;;12.10;4.67;;;12.40;72.20;;;14.92;54.82;102540.84;5045892;28;20263;-61
2022/10/12 00:37:23;;;;;;;8.83;4.63;;;12.30;72.10;;;14.83;55.17;102542.59;5047346;28;20198;-62
2022/10/12 00:39:50;;;;;;;14.33;4.77;;;12.30;72.40;;;14.77;54.97;102543.25;5050763;28;20219;-61
2022/10/12 00:42:19;;;;;;;8.97;4.60;;;12.20;72.30;;;14.75;55.26;102537.28;5048867;28;20615;-61
2022/10/12 00:44:50;;;;;;;7.57;4.03;;;12.20;72.60;;;14.75;55.31;102534.63;5033987;28;20256;-61
2022/10/12 00:47:29;;;;;;;6.40;4.20;;;12.20;72.90;;;14.73;55.23;102533.94;5033227;28;20195;-60
2022/10/12 00:50:04;;;;;;;13.03;4.97;;;12.10;72.70;;;14.71;55.01;102541.22;5033639;28;20220;-60
2022/10/12 00:52:39;;;;;;;8.77;3.60;;;12.10;72.70;;;14.69;55.24;102540.53;5042396;28;20210;-62
2022/10/12 00:55:11;;;;;;;12.53;4.50;;;12.10;72.70;;;14.68;55.07;102538.91;5053017;28;20194;-60
2022/10/12 00:57:39;;;;;;;11.90;4.30;;;12.00;72.70;;;14.68;55.28;102546.00;5053026;28;20224;-60
2022/10/12 01:00:16;;;;;;;8.50;4.10;;;12.00;73.00;;;14.66;55.04;102540.03;5052878;28;20198;-60
2022/10/12 01:02:48;;;;;;;7.57;4.13;;;12.00;72.90;;;14.67;55.46;102547.81;5038142;28;20218;-60
2022/10/12 01:05:16;;;;;;;8.80;3.93;;;12.00;73.50;;;14.69;55.13;102545.84;5037788;28;20554;-60
2022/10/12 01:07:43;;;;;;;7.60;3.73;;;12.00;73.30;;;14.71;55.05;102543.84;5034004;28;20221;-61
2022/10/12 01:10:11;;;;;;;8.53;4.00;;;12.00;73.20;;;14.73;55.02;102543.72;5051401;28;20200;-60
2022/10/12 01:12:42;;;;;;;10.77;4.50;;;12.00;73.20;;;14.74;54.90;102545.38;5048231;28;20571;-60
2022/10/12 01:15:11;;;;;;;7.50;3.83;;;12.00;73.00;;;14.71;55.10;102541.22;5042611;28;20208;-60
2022/10/12 01:17:57;;;;;;;10.40;3.93;;;12.00;73.10;;;14.70;55.24;102542.22;5053518;28;20194;-60
2022/10/12 01:20:56;;;;;;;8.20;3.67;;;12.00;73.20;;;14.67;55.31;102537.22;5052313;28;20562;-60
2022/10/12 01:24:16;;;;;;;10.50;3.67;;;12.00;73.40;;;14.67;55.74;102531.91;5036791;28;20210;-60
2022/10/12 01:27:24;;;;;;;10.00;3.73;;;12.00;73.90;;;14.72;55.37;102534.94;5041582;28;20212;-60
2022/10/12 01:30:12;;;;;;;9.10;4.23;;;12.10;73.50;;;14.77;55.65;102537.94;5052781;28;20198;-60
2022/10/12 01:33:08;;;;;;;9.90;4.20;;;12.10;73.80;;;14.84;55.31;102530.19;5038928;28;20215;-59
2022/10/12 01:35:44;;;;;;;9.03;4.23;;;12.20;73.80;;;14.93;55.41;102527.41;5040053;28;20194;-60
2022/10/12 01:38:32;;;;;;;7.57;4.00;;;12.30;73.70;;;15.00;54.75;102530.25;5053036;28;20569;-62
2022/10/12 01:41:09;;;;;;;10.60;4.17;;;12.30;72.80;;;15.02;54.74;102525.66;5052173;28;20198;-61
2022/10/12 01:43:40;;;;;;;7.80;3.47;;;12.40;72.50;;;15.06;54.81;102520.84;5036462;28;20241;-61
2022/10/12 01:46:44;;;;;;;7.47;4.37;;;12.30;72.70;;;15.01;54.37;102520.47;5036381;28;20605;-61
2022/10/12 01:49:16;;;;;;;8.20;4.10;;;12.40;72.50;;;15.00;54.09;102519.66;5037205;28;20248;-61
2022/10/12 01:52:15;;;;;;;7.43;3.77;;;12.40;71.70;;;14.90;54.05;102519.78;5036156;28;20222;-63
2022/10/12 01:55:13;;;;;;;7.67;3.63;;;12.30;71.60;;;14.83;54.12;102518.75;5036475;28;20171;-61
2022/10/12 01:57:58;;;;;;;6.63;4.00;;;12.30;71.40;;;14.73;54.09;102519.88;5036673;28;20183;-62
2022/10/12 02:00:26;;;;;;;7.80;3.83;;;12.20;71.40;;;14.67;54.34;102512.53;5035819;28;20587;-63
2022/10/12 02:03:08;;;;;;;6.67;3.60;;;12.10;71.50;;;14.59;54.23;102508.03;5044988;28;20253;-61
2022/10/12 02:05:44;;;;;;;7.80;3.97;;;12.00;71.70;;;14.54;54.63;102510.31;5043552;28;20213;-61
2022/10/12 02:08:20;;;;;;;8.43;3.40;;;11.90;71.90;;;14.47;54.88;102509.28;5056240;28;20243;-60
2022/10/12 02:10:57;;;;;;;6.97;3.90;;;11.90;72.20;;;14.39;54.95;102509.22;5056382;28;20555;-61
2022/10/12 02:13:30;;;;;;;7.63;3.20;;;11.80;72.40;;;14.32;55.12;102502.88;5050328;28;20218;-61
2022/10/12 02:16:01;;;;;;;5.33;3.20;;;11.70;72.50;;;14.27;55.42;102505.13;5055996;28;20194;-60
2022/10/12 02:18:34;;;;;;;10.67;3.70;;;11.70;72.70;;;14.21;55.55;102503.91;5051343;28;20539;-62
2022/10/12 02:21:03;;;;;;;8.70;2.97;;;11.60;72.90;;;14.18;55.24;102506.06;5035847;28;20233;-61
2022/10/12 02:23:31;;;;;;;13.67;4.03;;;11.60;73.00;;;14.16;55.41;102500.09;5041418;28;20302;-60
2022/10/12 02:26:01;;;;;;;10.93;3.97;;;11.50;72.90;;;14.16;55.42;102492.16;5035961;28;20568;-61
2022/10/12 02:28:34;;;;;;;6.00;3.27;;;11.50;73.10;;;14.17;55.93;102491.16;5035787;28;20555;-61
2022/10/12 02:31:14;;;;;;;5.17;2.77;;;11.50;74.20;;;14.22;55.57;102488.88;5035111;28;20182;-61
2022/10/12 02:33:50;;;;;;;11.30;3.80;;;11.50;74.00;;;14.23;55.64;102485.25;5050226;28;20218;-58
2022/10/12 02:36:26;;;;;;;8.63;3.77;;;11.50;73.90;;;14.25;55.29;102483.25;5048251;28;20221;-58
2022/10/12 02:39:01;;;;;;;7.17;3.70;;;11.50;74.40;;;14.18;55.30;102479.56;5038304;28;20597;-60
2022/10/12 02:41:40;;;;;;;5.90;3.73;;;11.50;73.40;;;14.13;55.56;102479.22;5053308;28;20186;-61
2022/10/12 02:44:12;;;;;;;7.70;3.57;;;11.40;73.30;;;14.06;55.25;102483.47;5035955;28;20276;-60
2022/10/12 02:46:42;;;;;;;7.97;3.80;;;11.40;73.20;;;14.03;55.68;102483.75;5035201;28;20219;-60
2022/10/12 02:49:13;;;;;;;7.53;3.33;;;11.40;73.50;;;14.02;55.53;102477.66;5035435;28;20215;-61
2022/10/12 02:51:43;;;;;;;10.03;3.67;;;11.30;73.70;;;14.04;56.29;102477.50;5035070;28;20660;-62
2022/10/12 02:54:11;;;;;;;5.97;3.10;;;11.30;74.70;;;14.09;56.01;102475.22;5036296;28;20244;-61
2022/10/12 02:56:43;;;;;;;9.23;3.07;;;11.40;74.60;;;14.15;55.83;102470.13;5035033;28;20191;-61
2022/10/12 02:59:11;;;;;;;10.07;3.47;;;11.40;74.40;;;14.18;55.94;102469.00;5045678;28;20206;-61
2022/10/12 03:01:39;;;;;;;6.27;3.30;;;11.40;74.20;;;14.19;55.89;102462.72;5054221;28;20194;-61
2022/10/12 03:04:07;;;;;;;7.63;3.97;;;11.40;74.20;;;14.19;55.41;102460.88;5037251;28;20244;-61
2022/10/12 03:06:36;;;;;;;5.80;3.63;;;11.40;73.90;;;14.16;55.39;102455.91;5035036;28;20225;-61
2022/10/12 03:09:04;;;;;;;7.23;3.50;;;11.40;73.50;;;14.12;55.38;102456.38;5035234;28;20194;-61
2022/10/12 03:11:31;;;;;;;6.73;3.53;;;11.40;73.40;;;14.09;55.44;102454.03;5038276;28;20585;-61
2022/10/12 03:13:58;;;;;;;10.77;4.23;;;11.40;73.40;;;14.08;55.63;102450.53;5035142;28;20222;-61
2022/10/12 03:16:26;;;;;;;11.33;3.60;;;11.40;74.00;;;14.06;55.56;102443.75;5053623;28;20194;-61
2022/10/12 03:18:53;;;;;;;9.30;4.37;;;11.30;73.70;;;13.98;55.80;102451.63;5055244;28;20194;-61
2022/10/12 03:21:21;;;;;;;8.87;4.20;;;11.30;73.80;;;13.91;55.97;102447.91;5054106;28;20198;-61
2022/10/12 03:23:49;;;;;;;7.70;3.43;;;11.30;73.80;;;13.87;56.20;102451.88;5038467;28;20264;-62
2022/10/12 03:26:17;;;;;;;8.43;3.77;;;11.20;74.20;;;13.85;56.23;102453.84;5034879;28;20682;-62
2022/10/12 03:28:44;;;;;;;7.63;3.63;;;11.20;74.30;;;13.82;56.54;102460.28;5038445;28;20190;-61
2022/10/12 03:31:11;;;;;;;6.80;3.27;;;11.20;74.80;;;13.86;57.22;102458.97;5053413;28;20669;-62
2022/10/12 03:33:39;;;;;;;5.63;3.33;;;11.20;75.90;;;13.94;56.60;102452.91;5048843;28;20624;-61
2022/10/12 03:36:08;;;;;;;7.00;3.80;;;11.30;75.40;;;13.95;56.39;102452.75;5054286;28;20194;-61
2022/10/12 03:38:35;;;;;;;7.20;3.87;;;11.30;74.70;;;13.93;56.46;102456.56;5054340;28;20251;-61
2022/10/12 03:41:04;;;;;;;6.00;3.67;;;11.30;75.00;;;13.95;56.32;102454.59;5034203;28;20194;-62
2022/10/12 03:43:34;;;;;;;10.80;4.37;;;11.30;74.90;;;13.97;56.43;102449.97;5035492;28;20222;-62
2022/10/12 03:46:01;;;;;;;7.10;3.27;;;11.30;74.90;;;14.00;56.27;102460.25;5036638;28;20217;-61
2022/10/12 03:48:29;;;;;;;6.63;3.77;;;11.30;74.80;;;13.96;55.97;102458.88;5033920;28;20201;-61
2022/10/12 03:50:57;;;;;;;7.73;4.00;;;11.30;74.30;;;13.89;55.91;102455.19;5033754;28;20209;-61
2022/10/12 03:53:24;;;;;;;8.67;4.43;;;11.20;73.80;;;13.73;56.26;102455.06;5049766;28;20517;-61
2022/10/12 03:55:51;;;;;;;9.23;4.73;;;11.20;73.90;;;13.57;56.61;102461.88;5054190;28;20218;-61
2022/10/12 03:58:20;;;;;;;11.30;4.07;;;11.10;74.20;;;13.44;56.87;102456.13;5053715;28;20244;-61
2022/10/12 04:00:51;;;;;;;9.43;4.13;;;10.90;75.10;;;13.38;56.94;102456.72;5053504;28;20247;-61
2022/10/12 04:03:18;;;;;;;7.93;4.30;;;10.90;74.70;;;13.35;57.32;102462.34;5038108;28;20218;-62
2022/10/12 04:05:52;;;;;;;10.20;4.20;;;10.80;75.00;;;13.26;57.60;102462.41;5052753;28;20221;-62
2022/10/12 04:08:20;;;;;;;7.10;4.03;;;10.70;75.50;;;13.15;57.97;102459.94;5053258;28;20268;-61
2022/10/12 04:10:49;;;;;;;8.93;4.70;;;10.60;75.90;;;13.02;58.20;102462.94;5053148;28;20247;-59
2022/10/12 04:13:17;;;;;;;10.00;4.93;;;10.50;76.10;;;12.96;58.17;102460.88;5047963;28;20574;-62
2022/10/12 04:15:46;;;;;;;8.00;4.97;;;10.50;76.50;;;12.90;58.50;102458.81;5053676;28;20202;-61
2022/10/12 04:18:13;;;;;;;7.37;4.23;;;10.40;76.70;;;12.84;58.87;102462.03;5053666;28;20197;-61
2022/10/12 04:20:41;;;;;;;9.33;4.70;;;10.30;76.70;;;12.75;58.81;102455.00;5042608;28;20260;-61
2022/10/12 04:23:08;;;;;;;7.20;4.10;;;10.20;77.00;;;12.71;58.78;102456.28;5052586;28;20696;-60
2022/10/12 04:25:35;;;;;;;8.63;4.73;;;10.20;76.80;;;12.73;58.79;102454.31;5053467;28;20265;-61
2022/10/12 04:28:03;;;;;;;9.17;4.53;;;10.10;77.10;;;12.78;59.02;102454.72;5052996;28;20198;-61
2022/10/12 04:30:31;;;;;;;8.67;3.80;;;10.10;77.40;;;12.86;59.50;102457.44;5053258;28;20255;-61
2022/10/12 04:33:00;;;;;;;6.43;4.40;;;10.20;78.60;;;12.95;59.06;102464.50;5045186;28;20621;-60
2022/10/12 04:35:27;;;;;;;7.20;4.33;;;10.20;78.20;;;13.08;59.12;102459.72;5039621;28;20236;-60
2022/10/12 04:37:55;;;;;;;6.93;4.90;;;10.30;78.60;;;13.19;58.64;102451.56;5051884;28;20186;-61
2022/10/12 04:40:22;;;;;;;11.77;4.20;;;10.40;77.90;;;13.24;58.04;102457.25;5049731;28;20266;-60
2022/10/12 04:42:50;;;;;;;7.47;4.00;;;10.50;77.10;;;13.29;58.53;102456.78;5051281;28;20217;-61
2022/10/12 04:45:17;;;;;;;8.30;4.30;;;10.60;77.30;;;13.36;57.73;102453.41;5052555;28;20189;-60
2022/10/12 04:47:45;;;;;;;6.67;4.17;;;10.60;76.80;;;13.43;58.18;102457.09;5052877;28;20198;-61
2022/10/12 04:50:14;;;;;;;7.20;4.23;;;10.70;77.40;;;13.55;58.01;102458.53;5048933;28;20195;-61
2022/10/12 04:52:41;;;;;;;9.90;4.77;;;10.80;77.00;;;13.65;57.03;102457.63;5044929;28;20704;-62
2022/10/12 04:55:08;;;;;;;9.77;4.90;;;10.90;75.70;;;13.65;56.41;102460.28;5050616;28;20190;-58
2022/10/12 04:57:36;;;;;;;12.43;4.97;;;11.00;74.70;;;13.61;56.45;102461.56;5033918;28;20198;-59
2022/10/12 05:00:06;;;;;;;7.40;4.30;;;11.00;74.40;;;13.55;56.18;102458.53;5048895;28;20608;-61
2022/10/12 05:02:33;;;;;;;9.33;4.13;;;10.90;74.10;;;13.48;56.47;102452.19;5049588;28;20222;-62
2022/10/12 05:05:00;;;;;;;8.57;4.30;;;10.90;74.20;;;13.46;56.31;102453.31;5034533;28;20198;-62
2022/10/12 05:07:29;;;;;;;8.40;4.13;;;10.80;74.30;;;13.41;56.25;102447.66;5052160;28;20225;-61
2022/10/12 05:09:56;;;;;;;5.27;3.97;;;10.80;74.20;;;13.37;56.36;102449.78;5038168;28;20552;-62
2022/10/12 05:12:24;;;;;;;7.67;4.10;;;10.70;74.10;;;13.33;56.15;102452.88;5043900;28;20221;-60
2022/10/12 05:14:51;;;;;;;7.03;3.93;;;10.70;74.20;;;13.32;56.33;102446.75;5041005;28;20220;-61
2022/10/12 05:17:18;;;;;;;6.77;3.80;;;10.60;74.60;;;13.33;56.67;102458.19;5054883;28;20197;-61
2022/10/12 05:19:46;;;;;;;7.00;4.80;;;10.60;74.90;;;13.25;56.64;102453.63;5043360;28;20190;-61
2022/10/12 05:22:13;;;;;;;5.33;3.70;;;10.60;74.80;;;13.16;56.77;102453.69;5056285;28;20212;-62
2022/10/12 05:24:42;;;;;;;8.80;4.73;;;10.50;74.60;;;13.09;56.60;102450.81;5055974;28;20194;-61
2022/10/12 05:27:09;;;;;;;8.03;4.17;;;10.40;74.80;;;12.98;56.79;102452.81;5056461;28;20241;-60
2022/10/12 05:29:39;;;;;;;7.90;4.83;;;10.30;74.80;;;12.85;56.88;102453.16;5043343;28;20202;-60
2022/10/12 05:32:07;;;;;;;8.90;4.67;;;10.30;75.10;;;12.71;57.65;102451.00;5052995;28;20216;-61
2022/10/12 05:34:34;;;;;;;5.87;4.40;;;10.20;75.80;;;12.61;57.81;102450.19;5056251;28;20659;-61
2022/10/12 05:37:01;;;;;;;8.87;4.77;;;10.10;76.60;;;12.56;58.18;102449.78;5056917;28;20194;-62
2022/10/12 05:39:29;;;;;;;5.10;4.40;;;10.00;76.30;;;12.56;58.49;102441.88;5048970;28;20198;-61
2022/10/12 05:41:57;;;;;;;11.13;4.97;;;10.00;76.40;;;12.60;58.57;102446.72;5037681;28;20198;-59
2022/10/12 05:44:25;;;;;;;9.33;5.37;;;9.90;78.40;;;12.69;59.16;102445.03;5036152;28;20206;-62
2022/10/12 05:46:52;;;;;;;6.70;4.50;;;10.00;78.00;;;12.76;58.41;102448.75;5037100;28;20242;-61
2022/10/12 05:49:20;;;;;;;9.33;5.20;;;10.00;77.40;;;12.83;58.66;102447.19;5038415;28;20731;-61
2022/10/12 05:51:47;;;;;;;10.27;6.73;;;10.10;77.50;;;12.86;58.15;102454.78;5053984;28;20614;-60
2022/10/12 05:54:14;;;;;;;8.23;5.90;;;10.10;77.10;;;12.90;58.23;102450.91;5040204;28;20591;-60
2022/10/12 05:56:42;;;;;;;8.60;4.57;;;10.10;77.10;;;12.97;58.00;102445.84;5037020;28;20198;-61
2022/10/12 05:59:11;;;;;;;7.03;4.50;;;10.20;77.10;;;13.02;57.90;102449.72;5037000;28;20713;-61
2022/10/12 06:01:40;;;;;;;8.73;4.50;;;10.20;77.00;;;13.09;57.75;102450.81;5035720;28;20659;-61
2022/10/12 06:04:07;;;;;;;7.43;4.63;;;10.20;76.70;;;13.11;57.53;102448.84;5036812;28;20221;-60
2022/10/12 06:06:35;;;;;;;8.33;5.10;;;10.30;76.50;;;13.13;57.50;102452.19;5038059;28;20210;-60
2022/10/12 06:09:03;;;;;;;9.83;5.60;;;10.30;76.40;;;13.16;57.22;102446.59;5039852;28;20273;-62
2022/10/12 06:11:30;;;;;;;6.30;4.80;;;10.40;76.40;;;13.20;57.42;102442.66;5045115;28;20264;-60
2022/10/12 06:14:03;;;;;;;9.93;5.13;;;10.40;76.60;;;13.26;57.45;102447.38;5054989;28;20220;-61
2022/10/12 06:16:32;;;;;;;7.80;4.80;;;10.40;76.50;;;13.33;57.29;102443.16;5054402;28;20219;-62
2022/10/12 06:18:59;;;;;;;11.83;5.30;;;10.50;76.40;;;13.39;56.99;102447.81;5050133;28;20195;-61
2022/10/12 06:21:26;;;;;;;10.87;5.30;;;10.50;76.30;;;13.43;56.78;102454.47;5047997;28;20198;-60
2022/10/12 06:24:01;;;;;;;8.17;4.73;;;10.60;75.90;;;13.45;56.29;102451.69;5050094;28;20218;-62
2022/10/12 06:26:28;;;;;;;11.97;5.50;;;10.60;75.30;;;13.40;56.34;102448.66;5055198;28;20214;-61
2022/10/12 06:28:56;;;;;;;10.20;5.50;;;10.60;74.70;;;13.30;56.49;102443.44;5050471;28;20222;-61
2022/10/12 06:31:24;;;;;;;11.43;5.23;;;10.60;74.60;;;13.25;56.50;102439.56;5035077;28;20194;-62
2022/10/12 06:33:52;;;;;;;11.13;4.57;;;10.60;74.80;;;13.21;56.75;102441.69;5036517;28;20249;-61
2022/10/12 06:36:20;;;;;;;9.17;4.80;;;10.60;75.00;;;13.23;56.76;102442.38;5049381;28;20205;-59
2022/10/12 06:38:47;;;;;;;9.40;4.90;;;10.50;75.30;;;13.30;57.08;102445.25;5053087;28;20235;-61
2022/10/12 06:41:15;;;;;;;9.83;5.43;;;10.50;75.70;;;13.38;56.93;102447.97;5046042;28;20205;-61
2022/10/12 06:43:42;;;;;;;11.23;5.27;;;10.60;75.70;;;13.45;56.85;102444.56;5046207;28;20271;-62
2022/10/12 06:46:10;;;;;;;11.03;5.17;;;10.60;75.70;;;13.53;56.48;102446.44;5040398;28;20245;-61
2022/10/12 06:48:38;;;;;;;11.33;5.63;;;10.70;75.40;;;13.56;56.22;102438.22;5034658;28;20285;-61
2022/10/12 06:51:07;;;;;;;10.03;5.17;;;10.70;75.00;;;13.55;56.27;102447.97;5035783;28;20559;-61
2022/10/12 06:53:35;;;;;;;7.23;4.80;;;10.70;75.00;;;13.61;56.22;102446.53;5036425;28;20269;-62
2022/10/12 06:56:05;;;;;;;9.10;5.90;;;10.80;75.20;;;13.69;56.54;102448.44;5037606;28;20281;-60
2022/10/12 06:58:32;;;;;;;11.57;6.60;;;10.80;75.70;;;13.77;56.26;102446.66;5040478;28;20198;-60
2022/10/12 07:01:02;;;;;;;11.43;6.20;;;10.90;75.50;;;13.84;56.20;102454.81;5055578;28;20209;-62
2022/10/12 07:03:30;;;;;;;9.57;6.07;;;11.00;75.30;;;13.85;56.37;102452.03;5054953;28;20210;-61
2022/10/12 07:06:07;;;;;;;12.17;5.17;;;11.00;74.90;;;13.85;55.64;102453.84;5044863;28;20257;-62
2022/10/12 07:08:35;;;;;;;9.60;5.10;;;11.10;74.80;;;13.91;56.24;102447.91;5035537;28;20194;-60
2022/10/12 07:11:05;;;;;;;6.40;4.80;;;11.10;75.10;;;13.96;55.97;102446.50;5035089;28;20256;-61
2022/10/12 07:13:33;;;;;;;7.43;4.93;;;11.10;74.80;;;13.97;55.79;102452.63;5041122;28;20682;-60
2022/10/12 07:16:01;;;;;;;10.10;5.40;;;11.20;74.70;;;13.96;55.86;102445.66;5050281;28;20271;-61
2022/10/12 07:18:28;;;;;;;9.10;5.03;;;11.20;74.60;;;13.97;56.29;102447.31;5054911;28;20194;-61
2022/10/12 07:20:58;;;;;;;12.93;5.27;;;11.20;75.00;;;14.09;56.55;102446.94;5044591;28;20201;-62
2022/10/12 07:23:28;;;;;;;8.93;4.83;;;11.30;75.70;;;14.24;56.03;102444.50;5054568;28;20217;-62
2022/10/12 07:25:55;;;;;;;7.93;4.93;;;11.40;75.50;;;14.36;56.01;102451.25;5054796;28;20543;-61
2022/10/12 07:28:23;;;;;;;8.30;5.13;;;11.50;75.20;;;14.49;55.81;102451.66;5053652;28;20263;-62
2022/10/12 07:30:51;;;;;;;20.47;14.80;;;11.60;75.10;;;14.64;55.54;102443.97;5049230;28;20546;-60
2022/10/12 07:33:18;;;;;;;9.80;5.43;;;11.70;75.20;;;14.81;55.45;102449.16;5037672;28;20224;-62
2022/10/12 07:35:55;;;;;;;9.10;6.03;;;11.80;74.80;;;14.95;54.90;102449.53;5053827;28;20263;-62
2022/10/12 07:38:47;;;;;;;9.33;6.20;;;12.00;74.40;;;15.06;54.46;102442.13;5053918;28;20221;-60
2022/10/12 07:41:15;;;;;;;9.43;5.53;;;12.10;73.80;;;15.13;54.34;102442.28;5053608;28;20231;-61
2022/10/12 07:43:42;;;;;;;32.70;18.93;;;12.20;73.60;;;15.23;54.35;102443.81;5036943;28;20218;-62
2022/10/12 07:46:11;;;;;;;11.87;6.03;;;12.30;73.60;;;15.37;53.90;102445.00;5032973;28;20202;-62
2022/10/12 07:48:40;;;;;;;12.07;5.47;;;12.40;73.20;;;15.44;53.67;102446.00;5035453;28;20187;-61
2022/10/12 07:51:13;;;;;;;10.43;6.20;;;12.50;72.80;;;15.50;53.17;102440.06;5050344;28;20207;-62
2022/10/12 07:53:42;;;;;;;9.30;5.33;;;12.60;72.20;;;15.52;52.95;102438.09;5038414;28;20272;-62
2022/10/12 07:56:14;;;;;;;9.43;5.50;;;12.70;71.70;;;15.56;53.19;102445.56;5032303;28;20305;-61
2022/10/12 07:58:41;;;;;;;11.67;4.73;;;12.70;71.60;;;15.56;52.81;102445.56;5018212;28;20291;-62
2022/10/12 08:01:10;;;;;;;10.40;5.03;;;12.80;71.50;;;15.61;53.14;102446.88;5052521;28;20678;-62
2022/10/12 08:03:37;;;;;;;8.10;4.83;;;12.80;71.60;;;15.66;53.15;102449.88;5040458;28;20214;-61
2022/10/12 08:06:10;;;;;;;13.03;5.40;;;12.80;71.50;;;15.69;52.89;102450.34;5044792;28;20205;-61
2022/10/12 08:08:38;;;;;;;10.37;5.00;;;12.90;71.30;;;15.73;53.01;102448.22;5046749;28;20226;-61
2022/10/12 08:11:08;;;;;;;9.60;5.07;;;12.90;71.30;;;15.76;53.27;102446.03;5040815;28;20301;-60
2022/10/12 08:13:38;;;;;;;7.47;5.10;;;12.90;71.50;;;15.80;53.01;102447.38;5038262;28;20222;-60
2022/10/12 08:16:10;;;;;;;11.73;4.63;;;13.00;71.60;;;15.87;53.02;102448.38;5045006;28;20205;-61
2022/10/12 08:18:37;;;;;;;12.50;5.03;;;13.10;71.70;;;15.99;52.88;102448.88;5041060;28;20232;-62
2022/10/12 08:21:08;;;;;;;21.30;11.27;;;13.10;71.70;;;16.10;52.87;102449.34;5040302;28;20226;-61
2022/10/12 08:23:36;;;;;;;9.47;5.03;;;13.20;71.70;;;16.26;52.41;102438.69;5041623;28;20221;-62
2022/10/12 08:26:06;;;;;;;11.53;6.37;;;13.30;71.20;;;16.37;52.03;102444.63;5038248;28;20324;-60
2022/10/12 08:28:35;;;;;;;7.40;4.07;;;13.40;70.70;;;16.46;51.85;102443.59;5038900;28;21148;-60
2022/10/12 08:31:06;;;;;;;8.93;4.67;;;13.50;70.30;;;16.53;51.02;102441.94;5048139;28;20601;-61
2022/10/12 08:33:34;;;;;;;9.63;4.27;;;13.60;69.20;;;16.64;50.78;102449.56;5041574;28;20234;-60
2022/10/12 08:36:10;;;;;;;8.57;3.93;;;13.70;68.90;;;16.72;50.57;102444.22;5038660;28;20205;-61
2022/10/12 08:38:44;;;;;;;17.73;4.67;;;13.80;68.20;;;16.87;50.64;102445.16;5031597;28;20202;-63
2022/10/12 08:41:39;;;;;;;7.10;4.10;;;14.00;68.40;;;17.09;50.29;102435.56;5029931;28;20293;-63
2022/10/12 08:44:51;;;;;;;8.33;4.00;;;14.20;68.50;;;17.31;48.78;102446.22;5035983;28;20711;-63
2022/10/12 08:47:30;;;;;;;8.83;4.00;;;14.40;67.10;;;17.51;47.32;102441.25;5000101;28;20270;-63
2022/10/12 08:50:01;;;;;;;8.10;4.00;;;14.60;63.80;;;17.70;46.85;102445.31;5058551;28;20210;-60
2022/10/12 08:52:37;;;;;;;9.60;3.73;;;14.80;63.50;;;17.91;46.46;102442.78;5042112;28;20283;-62
2022/10/12 08:55:24;;;;;;;10.37;3.23;;;15.00;62.60;;;18.07;44.94;102431.97;5044275;28;20224;-62
2022/10/12 08:57:53;;;;;;;7.43;3.53;;;15.10;60.50;;;18.35;44.91;102441.00;5044835;28;20277;-64
2022/10/12 09:00:20;;;;;;;9.93;3.47;;;15.30;60.90;;;18.53;44.50;102425.50;5036975;28;20193;-60
2022/10/12 09:03:04;;;;;;;9.67;3.70;;;15.40;60.70;;;18.79;44.16;102427.66;5022317;28;20234;-61
2022/10/12 09:05:40;;;;;;;10.13;5.47;;;15.60;60.30;;;19.33;44.04;102438.72;5026680;28;20195;-62
2022/10/12 09:08:22;;;;;;;8.10;3.90;;;15.80;61.40;;;19.56;42.47;102431.41;5020323;28;20223;-61
2022/10/12 09:11:14;;;;;;;11.23;3.83;;;16.10;58.70;;;19.79;41.10;102423.16;5017295;28;20202;-63
2022/10/12 09:13:54;;;;;;;8.67;3.23;;;16.40;58.20;;;19.96;40.76;102420.03;5027465;28;20222;-62
2022/10/12 09:16:26;;;;;;;7.57;3.10;;;16.60;56.60;;;20.38;40.65;102418.25;5022915;28;20252;-61
2022/10/12 09:19:00;;;;;;;9.07;3.27;;;16.80;56.20;;;21.26;39.46;102419.00;5012300;28;20219;-61
2022/10/12 09:21:31;;;;;;;8.50;2.97;;;17.20;56.20;;;22.27;37.76;102414.28;5020340;28;20257;-61
2022/10/12 09:24:00;;;;;;;6.93;3.10;;;17.80;55.30;;;23.36;36.90;102424.75;5024364;28;20471;-61
2022/10/12 09:26:34;;;;;;;5.43;2.77;;;18.40;55.60;;;24.39;33.75;102419.72;5025084;28;20664;-62
2022/10/12 09:29:25;;;;;;;7.77;3.10;;;19.20;52.20;;;25.07;32.73;102414.91;5022147;28;20219;-62
2022/10/12 09:32:27;;;;;;;7.50;3.00;;;19.90;50.50;;;26.05;29.88;102414.13;5014131;28;20214;-61
2022/10/12 09:34:56;;;;;;;8.40;3.37;;;20.70;47.00;;;26.50;29.52;102417.03;5004109;28;20214;-64
2022/10/12 09:37:31;;;;;;;6.47;2.80;;;21.30;45.20;;;26.74;29.51;102413.19;5013684;28;20619;-62
2022/10/12 09:39:59;;;;;;;5.67;3.00;;;21.80;43.80;;;26.88;28.48;102407.53;5019373;28;20195;-61
2022/10/12 09:42:27;;;;;;;7.20;3.10;;;22.10;42.90;;;26.90;28.90;102421.63;5020559;28;20272;-62
2022/10/12 09:45:02;;;;;;;5.40;3.00;;;22.30;42.50;;;26.86;28.72;102405.09;5017815;28;20319;-64
2022/10/12 09:47:32;;;;;;;6.87;3.33;;;22.50;42.10;;;26.92;28.73;102405.97;5016755;28;20566;-60
2022/10/12 09:50:03;;;;;;;6.93;3.17;;;22.60;42.40;;;27.06;28.93;102404.63;5020033;28;20290;-63
2022/10/12 09:52:41;;;;;;;7.83;3.20;;;22.60;42.30;;;27.23;28.07;102408.16;5017589;28;20246;-61
2022/10/12 09:55:24;;;;;;;7.57;3.10;;;22.70;41.80;;;27.18;28.20;102410.78;5021126;28;20201;-60
2022/10/12 09:58:01;;;;;;;9.50;2.90;;;22.70;41.90;;;26.90;28.16;102405.41;5022677;28;20220;-60
2022/10/12 10:00:33;;;;;;;6.13;3.47;;;22.50;40.90;;;26.63;28.73;102411.34;5018948;28;20188;-62
2022/10/12 10:03:01;;;;;;;9.13;3.40;;;22.50;41.30;;;26.25;28.82;102408.38;5022381;28;20741;-61
2022/10/12 10:05:32;;;;;;;6.23;3.07;;;22.30;41.30;;;25.98;29.96;102412.63;5019322;28;20516;-60
2022/10/12 10:08:18;;;;;;;8.03;3.87;;;22.10;41.70;;;25.79;29.82;102409.22;5015098;28;20211;-62
2022/10/12 10:10:51;;;;;;;7.60;3.27;;;21.90;42.30;;;25.65;29.73;102404.28;5027356;28;20194;-61
2022/10/12 10:13:21;;;;;;;5.33;3.13;;;21.70;42.10;;;25.59;29.79;102400.63;5022101;28;20219;-63
2022/10/12 10:16:02;;;;;;;5.20;3.63;;;21.50;42.60;;;25.80;29.74;102407.34;5023172;28;20195;-64
2022/10/12 10:18:36;;;;;;;9.47;3.93;;;21.40;43.20;;;26.14;29.64;102398.44;5025381;28;20221;-61
2022/10/12 10:21:07;;;;;;;10.83;3.07;;;21.30;43.30;;;26.24;28.91;102393.25;5019734;28;20190;-61
2022/10/12 10:23:42;;;;;;;9.00;3.10;;;21.20;42.50;;;26.29;28.53;102390.66;5024697;28;20867;-61
2022/10/12 10:26:14;;;;;;;11.00;3.10;;;21.20;43.10;;;25.99;28.79;102376.47;5020986;28;20901;-64
2022/10/12 10:28:45;;;;;;;9.27;3.93;;;21.10;42.90;;;25.34;29.58;102371.13;5019313;28;20226;-61